sensor_id;sensor_type;location;lat;lon;timestamp;P1;durP1;ratioP1;P2;durP2;ratioP2
36391;SDS011;22639;42.690;23.356;2023-05-21T00:02:13;18.25;;;12.57;;
36391;SDS011;22639;42.690;23.356;2023-05-21T00:04:39;15.93;;;13.07;;
36391;SDS011;22639;42.690;23.356;2023-05-21T00:07:05;15.02;;;11.85;;
36391;SDS011;22639;42.690;23.356;2023-05-21T00:09:30;15.20;;;12.68;;
36391;SDS011;22639;42.690;23.356;2023-05-21T00:11:56;16.67;;;12.88;;
36391;SDS011;22639;42.690;23.356;2023-05-21T00:14:21;17.00;;;12.35;;
36391;SDS011;22639;42.690;23.356;2023-05-21T00:16:46;15.60;;;11.57;;
36391;SDS011;22639;42.690;23.356;2023-05-21T00:19:11;15.13;;;13.45;;
36391;SDS011;22639;42.690;23.356;2023-05-21T00:21:37;17.08;;;13.10;;
36391;SDS011;22639;42.690;23.356;2023-05-21T00:24:03;18.10;;;13.88;;
36391;SDS011;22639;42.690;23.356;2023-05-21T00:26:29;20.23;;;13.40;;
36391;SDS011;22639;42.690;23.356;2023-05-21T00:28:54;17.75;;;12.48;;
36391;SDS011;22639;42.690;23.356;2023-05-21T00:31:19;17.60;;;13.02;;
36391;SDS011;22639;42.690;23.356;2023-05-21T00:33:45;17.10;;;12.18;;
36391;SDS011;22639;42.690;23.356;2023-05-21T00:36:10;17.60;;;13.75;;
36391;SDS011;22639;42.690;23.356;2023-05-21T00:38:38;17.27;;;12.80;;
36391;SDS011;22639;42.690;23.356;2023-05-21T00:41:03;14.93;;;13.30;;
36391;SDS011;22639;42.690;23.356;2023-05-21T00:43:28;18.50;;;13.75;;
36391;SDS011;22639;42.690;23.356;2023-05-21T00:45:54;15.60;;;11.57;;
36391;SDS011;22639;42.690;23.356;2023-05-21T00:48:20;18.60;;;13.55;;
36391;SDS011;22639;42.690;23.356;2023-05-21T00:50:46;20.58;;;14.38;;
36391;SDS011;22639;42.690;23.356;2023-05-21T00:53:13;19.33;;;13.65;;
36391;SDS011;22639;42.690;23.356;2023-05-21T00:55:39;17.55;;;12.98;;
36391;SDS011;22639;42.690;23.356;2023-05-21T00:58:05;19.20;;;13.55;;
36391;SDS011;22639;42.690;23.356;2023-05-21T01:00:34;18.77;;;13.90;;
36391;SDS011;22639;42.690;23.356;2023-05-21T01:02:59;17.25;;;13.02;;
36391;SDS011;22639;42.690;23.356;2023-05-21T01:05:25;16.60;;;13.23;;
36391;SDS011;22639;42.690;23.356;2023-05-21T01:07:51;20.00;;;15.07;;
36391;SDS011;22639;42.690;23.356;2023-05-21T01:10:16;20.48;;;13.88;;
36391;SDS011;22639;42.690;23.356;2023-05-21T01:12:42;17.70;;;14.40;;
36391;SDS011;22639;42.690;23.356;2023-05-21T01:15:08;18.23;;;14.20;;
36391;SDS011;22639;42.690;23.356;2023-05-21T01:17:34;18.08;;;14.48;;
36391;SDS011;22639;42.690;23.356;2023-05-21T01:20:00;22.00;;;15.90;;
36391;SDS011;22639;42.690;23.356;2023-05-21T01:22:27;20.48;;;15.40;;
36391;SDS011;22639;42.690;23.356;2023-05-21T01:24:52;19.48;;;15.18;;
36391;SDS011;22639;42.690;23.356;2023-05-21T01:27:19;17.67;;;15.63;;
36391;SDS011;22639;42.690;23.356;2023-05-21T01:29:44;19.52;;;15.00;;
36391;SDS011;22639;42.690;23.356;2023-05-21T01:35:01;18.00;;;14.48;;
36391;SDS011;22639;42.690;23.356;2023-05-21T01:37:30;17.00;;;14.23;;
36391;SDS011;22639;42.690;23.356;2023-05-21T01:39:56;19.92;;;14.98;;
36391;SDS011;22639;42.690;23.356;2023-05-21T01:42:23;20.15;;;14.98;;
36391;SDS011;22639;42.690;23.356;2023-05-21T01:44:50;18.73;;;14.82;;
36391;SDS011;22639;42.690;23.356;2023-05-21T01:47:16;17.00;;;13.90;;
36391;SDS011;22639;42.690;23.356;2023-05-21T01:49:41;18.67;;;13.98;;
36391;SDS011;22639;42.690;23.356;2023-05-21T01:52:07;15.98;;;13.82;;
36391;SDS011;22639;42.690;23.356;2023-05-21T01:54:33;16.50;;;13.18;;
36391;SDS011;22639;42.690;23.356;2023-05-21T01:56:58;19.90;;;14.93;;
36391;SDS011;22639;42.690;23.356;2023-05-21T01:59:23;17.58;;;12.32;;
36391;SDS011;22639;42.690;23.356;2023-05-21T02:01:49;15.93;;;13.27;;
36391;SDS011;22639;42.690;23.356;2023-05-21T02:04:14;14.82;;;12.98;;
36391;SDS011;22639;42.690;23.356;2023-05-21T02:06:39;16.88;;;13.52;;
36391;SDS011;22639;42.690;23.356;2023-05-21T02:09:05;16.15;;;13.48;;
36391;SDS011;22639;42.690;23.356;2023-05-21T02:11:30;16.35;;;12.25;;
36391;SDS011;22639;42.690;23.356;2023-05-21T02:13:56;15.60;;;12.68;;
36391;SDS011;22639;42.690;23.356;2023-05-21T02:16:21;18.58;;;12.95;;
36391;SDS011;22639;42.690;23.356;2023-05-21T02:18:46;14.88;;;12.27;;
36391;SDS011;22639;42.690;23.356;2023-05-21T02:21:15;18.77;;;12.95;;
36391;SDS011;22639;42.690;23.356;2023-05-21T02:23:40;16.10;;;12.55;;
36391;SDS011;22639;42.690;23.356;2023-05-21T02:26:06;17.15;;;12.40;;
36391;SDS011;22639;42.690;23.356;2023-05-21T02:28:32;17.85;;;12.95;;
36391;SDS011;22639;42.690;23.356;2023-05-21T02:30:57;15.93;;;11.88;;
36391;SDS011;22639;42.690;23.356;2023-05-21T02:33:22;15.60;;;12.68;;
36391;SDS011;22639;42.690;23.356;2023-05-21T02:35:48;16.73;;;13.68;;
36391;SDS011;22639;42.690;23.356;2023-05-21T02:38:13;18.58;;;13.05;;
36391;SDS011;22639;42.690;23.356;2023-05-21T02:40:43;18.58;;;14.25;;
36391;SDS011;22639;42.690;23.356;2023-05-21T02:43:08;16.88;;;12.77;;
36391;SDS011;22639;42.690;23.356;2023-05-21T02:45:33;15.80;;;12.65;;
36391;SDS011;22639;42.690;23.356;2023-05-21T02:47:58;21.90;;;14.07;;
36391;SDS011;22639;42.690;23.356;2023-05-21T02:50:24;16.35;;;13.13;;
36391;SDS011;22639;42.690;23.356;2023-05-21T02:52:49;17.08;;;12.75;;
36391;SDS011;22639;42.690;23.356;2023-05-21T02:55:14;19.77;;;13.30;;
36391;SDS011;22639;42.690;23.356;2023-05-21T02:57:39;18.92;;;12.20;;
36391;SDS011;22639;42.690;23.356;2023-05-21T03:00:05;19.23;;;12.25;;
36391;SDS011;22639;42.690;23.356;2023-05-21T03:02:33;14.60;;;12.50;;
36391;SDS011;22639;42.690;23.356;2023-05-21T03:04:58;17.00;;;12.90;;
36391;SDS011;22639;42.690;23.356;2023-05-21T03:07:24;16.55;;;13.00;;
36391;SDS011;22639;42.690;23.356;2023-05-21T03:09:49;18.55;;;14.10;;
36391;SDS011;22639;42.690;23.356;2023-05-21T03:12:15;17.40;;;14.25;;
36391;SDS011;22639;42.690;23.356;2023-05-21T03:14:40;18.42;;;14.65;;
36391;SDS011;22639;42.690;23.356;2023-05-21T03:17:10;19.63;;;13.70;;
36391;SDS011;22639;42.690;23.356;2023-05-21T03:19:38;17.25;;;12.68;;
36391;SDS011;22639;42.690;23.356;2023-05-21T03:22:03;17.20;;;13.65;;
36391;SDS011;22639;42.690;23.356;2023-05-21T03:24:28;18.33;;;13.60;;
36391;SDS011;22639;42.690;23.356;2023-05-21T03:26:57;16.45;;;13.23;;
36391;SDS011;22639;42.690;23.356;2023-05-21T03:29:23;16.30;;;12.07;;
36391;SDS011;22639;42.690;23.356;2023-05-21T03:31:50;18.90;;;11.93;;
36391;SDS011;22639;42.690;23.356;2023-05-21T03:34:16;17.50;;;13.00;;
36391;SDS011;22639;42.690;23.356;2023-05-21T03:36:44;15.93;;;12.75;;
36391;SDS011;22639;42.690;23.356;2023-05-21T03:39:10;16.65;;;12.30;;
36391;SDS011;22639;42.690;23.356;2023-05-21T03:41:35;15.13;;;11.73;;
36391;SDS011;22639;42.690;23.356;2023-05-21T03:44:00;17.33;;;12.60;;
36391;SDS011;22639;42.690;23.356;2023-05-21T03:46:25;14.30;;;12.13;;
36391;SDS011;22639;42.690;23.356;2023-05-21T03:48:52;17.50;;;12.50;;
36391;SDS011;22639;42.690;23.356;2023-05-21T03:51:17;15.40;;;11.85;;
36391;SDS011;22639;42.690;23.356;2023-05-21T03:53:44;14.80;;;12.05;;
36391;SDS011;22639;42.690;23.356;2023-05-21T03:56:09;13.93;;;11.40;;
36391;SDS011;22639;42.690;23.356;2023-05-21T03:58:34;17.90;;;12.68;;
36391;SDS011;22639;42.690;23.356;2023-05-21T04:01:00;19.25;;;12.45;;
36391;SDS011;22639;42.690;23.356;2023-05-21T04:03:27;18.58;;;12.55;;
36391;SDS011;22639;42.690;23.356;2023-05-21T04:05:52;18.17;;;11.75;;
36391;SDS011;22639;42.690;23.356;2023-05-21T04:08:18;15.90;;;11.63;;
36391;SDS011;22639;42.690;23.356;2023-05-21T04:10:43;14.77;;;12.27;;
36391;SDS011;22639;42.690;23.356;2023-05-21T04:13:08;13.85;;;11.45;;
36391;SDS011;22639;42.690;23.356;2023-05-21T04:15:33;14.20;;;11.82;;
36391;SDS011;22639;42.690;23.356;2023-05-21T04:17:59;16.52;;;11.43;;
36391;SDS011;22639;42.690;23.356;2023-05-21T04:20:24;13.15;;;10.55;;
36391;SDS011;22639;42.690;23.356;2023-05-21T04:22:50;17.60;;;11.90;;
36391;SDS011;22639;42.690;23.356;2023-05-21T04:25:22;15.20;;;12.07;;
36391;SDS011;22639;42.690;23.356;2023-05-21T04:27:47;17.80;;;10.93;;
36391;SDS011;22639;42.690;23.356;2023-05-21T04:30:14;13.80;;;10.98;;
36391;SDS011;22639;42.690;23.356;2023-05-21T04:32:39;19.05;;;11.90;;
36391;SDS011;22639;42.690;23.356;2023-05-21T04:35:04;13.35;;;10.82;;
36391;SDS011;22639;42.690;23.356;2023-05-21T04:37:29;15.38;;;11.88;;
36391;SDS011;22639;42.690;23.356;2023-05-21T04:39:58;16.25;;;11.38;;
36391;SDS011;22639;42.690;23.356;2023-05-21T04:42:25;14.35;;;11.93;;
36391;SDS011;22639;42.690;23.356;2023-05-21T04:44:51;17.83;;;11.77;;
36391;SDS011;22639;42.690;23.356;2023-05-21T04:47:16;14.07;;;10.43;;
36391;SDS011;22639;42.690;23.356;2023-05-21T04:49:45;15.07;;;10.55;;
36391;SDS011;22639;42.690;23.356;2023-05-21T04:52:15;14.98;;;11.45;;
36391;SDS011;22639;42.690;23.356;2023-05-21T04:54:40;16.25;;;11.27;;
36391;SDS011;22639;42.690;23.356;2023-05-21T04:57:06;15.40;;;11.65;;
36391;SDS011;22639;42.690;23.356;2023-05-21T04:59:31;13.02;;;10.38;;
36391;SDS011;22639;42.690;23.356;2023-05-21T05:01:57;14.20;;;11.25;;
36391;SDS011;22639;42.690;23.356;2023-05-21T05:04:22;13.90;;;10.60;;
36391;SDS011;22639;42.690;23.356;2023-05-21T05:06:47;13.75;;;10.52;;
36391;SDS011;22639;42.690;23.356;2023-05-21T05:09:14;13.52;;;10.35;;
36391;SDS011;22639;42.690;23.356;2023-05-21T05:11:40;14.25;;;10.55;;
36391;SDS011;22639;42.690;23.356;2023-05-21T05:14:05;12.82;;;9.48;;
36391;SDS011;22639;42.690;23.356;2023-05-21T05:16:31;17.08;;;9.30;;
36391;SDS011;22639;42.690;23.356;2023-05-21T05:18:56;10.38;;;9.20;;
36391;SDS011;22639;42.690;23.356;2023-05-21T05:21:21;10.82;;;9.07;;
36391;SDS011;22639;42.690;23.356;2023-05-21T05:23:47;11.75;;;9.52;;
36391;SDS011;22639;42.690;23.356;2023-05-21T05:26:13;11.88;;;8.77;;
36391;SDS011;22639;42.690;23.356;2023-05-21T05:28:38;10.80;;;9.02;;
36391;SDS011;22639;42.690;23.356;2023-05-21T05:31:03;10.95;;;9.80;;
36391;SDS011;22639;42.690;23.356;2023-05-21T05:33:28;13.25;;;9.50;;
36391;SDS011;22639;42.690;23.356;2023-05-21T05:35:54;10.68;;;8.55;;
36391;SDS011;22639;42.690;23.356;2023-05-21T05:38:19;11.02;;;9.05;;
36391;SDS011;22639;42.690;23.356;2023-05-21T05:40:44;10.10;;;8.98;;
36391;SDS011;22639;42.690;23.356;2023-05-21T05:43:10;13.18;;;9.18;;
36391;SDS011;22639;42.690;23.356;2023-05-21T05:45:35;12.43;;;9.20;;
36391;SDS011;22639;42.690;23.356;2023-05-21T05:48:00;13.43;;;9.18;;
36391;SDS011;22639;42.690;23.356;2023-05-21T05:50:25;12.32;;;9.57;;
36391;SDS011;22639;42.690;23.356;2023-05-21T05:52:51;16.10;;;9.40;;
36391;SDS011;22639;42.690;23.356;2023-05-21T05:55:16;11.88;;;9.35;;
36391;SDS011;22639;42.690;23.356;2023-05-21T05:57:41;14.05;;;9.88;;
36391;SDS011;22639;42.690;23.356;2023-05-21T06:00:07;16.67;;;12.05;;
36391;SDS011;22639;42.690;23.356;2023-05-21T06:02:34;53.97;;;35.03;;
36391;SDS011;22639;42.690;23.356;2023-05-21T06:05:00;15.40;;;12.52;;
36391;SDS011;22639;42.690;23.356;2023-05-21T06:07:26;14.30;;;9.93;;
36391;SDS011;22639;42.690;23.356;2023-05-21T06:09:51;12.05;;;8.82;;
36391;SDS011;22639;42.690;23.356;2023-05-21T06:12:16;13.57;;;8.00;;
36391;SDS011;22639;42.690;23.356;2023-05-21T06:14:41;8.10;;;6.25;;
36391;SDS011;22639;42.690;23.356;2023-05-21T06:17:07;11.20;;;9.52;;
36391;SDS011;22639;42.690;23.356;2023-05-21T06:19:32;10.15;;;8.85;;
36391;SDS011;22639;42.690;23.356;2023-05-21T06:21:57;11.85;;;9.27;;
36391;SDS011;22639;42.690;23.356;2023-05-21T06:24:22;15.05;;;8.88;;
36391;SDS011;22639;42.690;23.356;2023-05-21T06:26:49;10.85;;;8.85;;
36391;SDS011;22639;42.690;23.356;2023-05-21T06:29:14;10.75;;;7.65;;
36391;SDS011;22639;42.690;23.356;2023-05-21T06:31:41;8.52;;;7.07;;
36391;SDS011;22639;42.690;23.356;2023-05-21T06:34:06;7.50;;;6.00;;
36391;SDS011;22639;42.690;23.356;2023-05-21T06:36:31;7.82;;;6.07;;
36391;SDS011;22639;42.690;23.356;2023-05-21T06:38:58;7.43;;;5.53;;
36391;SDS011;22639;42.690;23.356;2023-05-21T06:41:23;7.45;;;6.22;;
36391;SDS011;22639;42.690;23.356;2023-05-21T06:43:48;7.60;;;6.88;;
36391;SDS011;22639;42.690;23.356;2023-05-21T06:46:14;6.55;;;5.95;;
36391;SDS011;22639;42.690;23.356;2023-05-21T06:48:39;9.18;;;6.32;;
36391;SDS011;22639;42.690;23.356;2023-05-21T06:51:04;8.43;;;6.13;;
36391;SDS011;22639;42.690;23.356;2023-05-21T06:53:30;6.15;;;5.38;;
36391;SDS011;22639;42.690;23.356;2023-05-21T06:55:55;6.07;;;5.47;;
36391;SDS011;22639;42.690;23.356;2023-05-21T06:58:20;7.20;;;5.88;;
36391;SDS011;22639;42.690;23.356;2023-05-21T07:00:46;6.40;;;5.80;;
36391;SDS011;22639;42.690;23.356;2023-05-21T07:03:11;6.95;;;6.25;;
36391;SDS011;22639;42.690;23.356;2023-05-21T07:05:36;8.07;;;6.13;;
36391;SDS011;22639;42.690;23.356;2023-05-21T07:08:02;6.15;;;5.55;;
36391;SDS011;22639;42.690;23.356;2023-05-21T07:10:27;8.20;;;6.03;;
36391;SDS011;22639;42.690;23.356;2023-05-21T07:12:53;9.85;;;6.00;;
36391;SDS011;22639;42.690;23.356;2023-05-21T07:15:18;6.70;;;6.03;;
36391;SDS011;22639;42.690;23.356;2023-05-21T07:17:43;9.00;;;6.25;;
36391;SDS011;22639;42.690;23.356;2023-05-21T07:20:08;8.43;;;6.13;;
36391;SDS011;22639;42.690;23.356;2023-05-21T07:22:36;11.68;;;5.78;;
36391;SDS011;22639;42.690;23.356;2023-05-21T07:25:02;7.78;;;5.88;;
36391;SDS011;22639;42.690;23.356;2023-05-21T07:27:28;7.38;;;6.68;;
36391;SDS011;22639;42.690;23.356;2023-05-21T07:29:54;9.38;;;6.10;;
36391;SDS011;22639;42.690;23.356;2023-05-21T07:32:19;9.75;;;5.75;;
36391;SDS011;22639;42.690;23.356;2023-05-21T07:34:44;7.60;;;5.97;;
36391;SDS011;22639;42.690;23.356;2023-05-21T07:37:11;8.13;;;5.47;;
36391;SDS011;22639;42.690;23.356;2023-05-21T07:39:36;7.50;;;6.03;;
36391;SDS011;22639;42.690;23.356;2023-05-21T07:42:02;7.55;;;6.45;;
36391;SDS011;22639;42.690;23.356;2023-05-21T07:44:27;6.75;;;5.97;;
36391;SDS011;22639;42.690;23.356;2023-05-21T07:46:52;8.60;;;5.38;;
36391;SDS011;22639;42.690;23.356;2023-05-21T07:49:17;5.15;;;4.65;;
36391;SDS011;22639;42.690;23.356;2023-05-21T07:51:43;5.25;;;3.90;;
36391;SDS011;22639;42.690;23.356;2023-05-21T07:54:08;6.20;;;4.45;;
36391;SDS011;22639;42.690;23.356;2023-05-21T07:56:34;4.40;;;3.80;;
36391;SDS011;22639;42.690;23.356;2023-05-21T07:58:59;6.88;;;3.40;;
36391;SDS011;22639;42.690;23.356;2023-05-21T08:01:26;9.23;;;4.28;;
36391;SDS011;22639;42.690;23.356;2023-05-21T08:03:52;3.85;;;3.33;;
36391;SDS011;22639;42.690;23.356;2023-05-21T08:06:17;4.40;;;3.45;;
36391;SDS011;22639;42.690;23.356;2023-05-21T08:08:42;8.70;;;3.58;;
36391;SDS011;22639;42.690;23.356;2023-05-21T08:11:08;5.63;;;3.88;;
36391;SDS011;22639;42.690;23.356;2023-05-21T08:13:33;8.52;;;4.05;;
36391;SDS011;22639;42.690;23.356;2023-05-21T08:15:58;5.93;;;3.75;;
36391;SDS011;22639;42.690;23.356;2023-05-21T08:18:24;5.85;;;4.32;;
36391;SDS011;22639;42.690;23.356;2023-05-21T08:20:49;6.25;;;4.35;;
36391;SDS011;22639;42.690;23.356;2023-05-21T08:23:14;7.60;;;3.25;;
36391;SDS011;22639;42.690;23.356;2023-05-21T08:25:39;5.43;;;3.60;;
36391;SDS011;22639;42.690;23.356;2023-05-21T08:28:05;4.78;;;3.67;;
36391;SDS011;22639;42.690;23.356;2023-05-21T08:30:30;5.38;;;3.17;;
36391;SDS011;22639;42.690;23.356;2023-05-21T08:32:57;4.47;;;3.50;;
36391;SDS011;22639;42.690;23.356;2023-05-21T08:35:23;4.03;;;3.40;;
36391;SDS011;22639;42.690;23.356;2023-05-21T08:37:48;4.13;;;3.42;;
36391;SDS011;22639;42.690;23.356;2023-05-21T08:40:13;4.13;;;3.33;;
36391;SDS011;22639;42.690;23.356;2023-05-21T08:42:42;7.95;;;3.55;;
36391;SDS011;22639;42.690;23.356;2023-05-21T08:45:10;5.13;;;3.30;;
36391;SDS011;22639;42.690;23.356;2023-05-21T08:47:35;4.82;;;3.03;;
36391;SDS011;22639;42.690;23.356;2023-05-21T08:50:02;4.65;;;3.97;;
36391;SDS011;22639;42.690;23.356;2023-05-21T08:52:29;7.05;;;4.28;;
36391;SDS011;22639;42.690;23.356;2023-05-21T08:54:54;9.43;;;3.85;;
36391;SDS011;22639;42.690;23.356;2023-05-21T08:57:20;6.70;;;3.03;;
36391;SDS011;22639;42.690;23.356;2023-05-21T08:59:47;5.70;;;3.80;;
36391;SDS011;22639;42.690;23.356;2023-05-21T09:02:12;4.22;;;3.63;;
36391;SDS011;22639;42.690;23.356;2023-05-21T09:04:40;8.43;;;7.70;;
36391;SDS011;22639;42.690;23.356;2023-05-21T09:07:07;12.43;;;10.68;;
36391;SDS011;22639;42.690;23.356;2023-05-21T09:09:42;11.55;;;10.40;;
36391;SDS011;22639;42.690;23.356;2023-05-21T09:12:10;7.47;;;5.25;;
36391;SDS011;22639;42.690;23.356;2023-05-21T09:14:35;6.85;;;3.80;;
36391;SDS011;22639;42.690;23.356;2023-05-21T09:17:01;5.38;;;4.25;;
36391;SDS011;22639;42.690;23.356;2023-05-21T09:19:26;8.05;;;3.88;;
36391;SDS011;22639;42.690;23.356;2023-05-21T09:22:00;6.03;;;4.05;;
36391;SDS011;22639;42.690;23.356;2023-05-21T09:24:26;6.75;;;4.57;;
36391;SDS011;22639;42.690;23.356;2023-05-21T09:26:56;4.70;;;3.42;;
36391;SDS011;22639;42.690;23.356;2023-05-21T09:29:21;6.88;;;4.03;;
36391;SDS011;22639;42.690;23.356;2023-05-21T09:31:48;5.00;;;3.72;;
36391;SDS011;22639;42.690;23.356;2023-05-21T09:34:13;4.85;;;3.78;;
36391;SDS011;22639;42.690;23.356;2023-05-21T09:36:39;5.18;;;3.72;;
36391;SDS011;22639;42.690;23.356;2023-05-21T09:39:04;4.00;;;3.55;;
36391;SDS011;22639;42.690;23.356;2023-05-21T09:41:30;8.10;;;4.00;;
36391;SDS011;22639;42.690;23.356;2023-05-21T09:43:57;4.07;;;3.47;;
36391;SDS011;22639;42.690;23.356;2023-05-21T09:46:24;4.50;;;3.80;;
36391;SDS011;22639;42.690;23.356;2023-05-21T09:48:50;5.18;;;3.47;;
36391;SDS011;22639;42.690;23.356;2023-05-21T09:51:15;2.90;;;2.70;;
36391;SDS011;22639;42.690;23.356;2023-05-21T09:53:51;3.35;;;3.05;;
36391;SDS011;22639;42.690;23.356;2023-05-21T09:56:20;4.45;;;3.35;;
36391;SDS011;22639;42.690;23.356;2023-05-21T09:58:55;3.17;;;2.88;;
36391;SDS011;22639;42.690;23.356;2023-05-21T10:01:22;3.75;;;2.85;;
36391;SDS011;22639;42.690;23.356;2023-05-21T10:03:54;3.60;;;2.63;;
36391;SDS011;22639;42.690;23.356;2023-05-21T10:06:20;5.80;;;3.40;;
36391;SDS011;22639;42.690;23.356;2023-05-21T10:08:48;6.50;;;3.33;;
36391;SDS011;22639;42.690;23.356;2023-05-21T10:11:16;6.05;;;3.60;;
36391;SDS011;22639;42.690;23.356;2023-05-21T10:13:43;4.75;;;3.00;;
36391;SDS011;22639;42.690;23.356;2023-05-21T10:16:09;3.75;;;2.75;;
36391;SDS011;22639;42.690;23.356;2023-05-21T10:18:34;3.47;;;3.13;;
36391;SDS011;22639;42.690;23.356;2023-05-21T10:21:01;4.00;;;3.03;;
36391;SDS011;22639;42.690;23.356;2023-05-21T10:23:27;3.60;;;2.90;;
36391;SDS011;22639;42.690;23.356;2023-05-21T10:25:53;9.35;;;3.88;;
36391;SDS011;22639;42.690;23.356;2023-05-21T10:28:19;3.50;;;3.17;;
36391;SDS011;22639;42.690;23.356;2023-05-21T10:30:46;4.80;;;3.63;;
36391;SDS011;22639;42.690;23.356;2023-05-21T10:33:14;3.13;;;2.83;;
36391;SDS011;22639;42.690;23.356;2023-05-21T10:35:40;5.38;;;3.50;;
36391;SDS011;22639;42.690;23.356;2023-05-21T10:38:07;4.25;;;3.58;;
36391;SDS011;22639;42.690;23.356;2023-05-21T10:40:33;6.13;;;3.83;;
36391;SDS011;22639;42.690;23.356;2023-05-21T10:45:52;4.15;;;3.47;;
36391;SDS011;22639;42.690;23.356;2023-05-21T10:48:27;5.13;;;3.50;;
36391;SDS011;22639;42.690;23.356;2023-05-21T11:01:10;11.05;;;4.30;;
36391;SDS011;22639;42.690;23.356;2023-05-21T11:03:37;5.25;;;4.38;;
36391;SDS011;22639;42.690;23.356;2023-05-21T11:06:03;4.10;;;3.50;;
36391;SDS011;22639;42.690;23.356;2023-05-21T11:08:32;3.97;;;3.67;;
36391;SDS011;22639;42.690;23.356;2023-05-21T11:11:01;5.30;;;3.92;;
36391;SDS011;22639;42.690;23.356;2023-05-21T11:13:27;4.70;;;4.00;;
36391;SDS011;22639;42.690;23.356;2023-05-21T11:20:52;3.78;;;3.40;;
36391;SDS011;22639;42.690;23.356;2023-05-21T11:23:19;6.82;;;3.88;;
36391;SDS011;22639;42.690;23.356;2023-05-21T11:25:50;4.20;;;3.70;;
36391;SDS011;22639;42.690;23.356;2023-05-21T11:28:33;4.68;;;3.85;;
36391;SDS011;22639;42.690;23.356;2023-05-21T11:33:43;4.40;;;3.47;;
36391;SDS011;22639;42.690;23.356;2023-05-21T11:36:11;4.57;;;3.63;;
36391;SDS011;22639;42.690;23.356;2023-05-21T11:38:37;6.93;;;4.05;;
36391;SDS011;22639;42.690;23.356;2023-05-21T11:41:02;3.65;;;3.30;;
36391;SDS011;22639;42.690;23.356;2023-05-21T11:43:27;4.10;;;3.67;;
36391;SDS011;22639;42.690;23.356;2023-05-21T11:45:53;4.47;;;3.70;;
36391;SDS011;22639;42.690;23.356;2023-05-21T11:48:19;6.78;;;3.85;;
36391;SDS011;22639;42.690;23.356;2023-05-21T11:50:45;6.57;;;3.67;;
36391;SDS011;22639;42.690;23.356;2023-05-21T11:53:10;6.68;;;3.88;;
36391;SDS011;22639;42.690;23.356;2023-05-21T11:55:39;6.60;;;4.20;;
36391;SDS011;22639;42.690;23.356;2023-05-21T11:58:07;4.75;;;4.07;;
36391;SDS011;22639;42.690;23.356;2023-05-21T12:00:37;4.65;;;3.92;;
36391;SDS011;22639;42.690;23.356;2023-05-21T12:03:03;4.63;;;4.10;;
36391;SDS011;22639;42.690;23.356;2023-05-21T12:05:30;6.97;;;4.60;;
36391;SDS011;22639;42.690;23.356;2023-05-21T12:08:07;6.60;;;4.45;;
36391;SDS011;22639;42.690;23.356;2023-05-21T12:10:36;9.13;;;4.78;;
36391;SDS011;22639;42.690;23.356;2023-05-21T12:13:01;7.50;;;4.18;;
36391;SDS011;22639;42.690;23.356;2023-05-21T12:15:26;5.57;;;4.00;;
36391;SDS011;22639;42.690;23.356;2023-05-21T12:17:52;5.88;;;3.53;;
36391;SDS011;22639;42.690;23.356;2023-05-21T12:20:18;5.45;;;4.50;;
36391;SDS011;22639;42.690;23.356;2023-05-21T12:22:43;5.78;;;3.47;;
36391;SDS011;22639;42.690;23.356;2023-05-21T12:25:09;5.38;;;4.40;;
36391;SDS011;22639;42.690;23.356;2023-05-21T12:27:34;4.57;;;3.83;;
36391;SDS011;22639;42.690;23.356;2023-05-21T12:30:00;5.10;;;4.03;;
36391;SDS011;22639;42.690;23.356;2023-05-21T12:32:26;6.28;;;4.40;;
36391;SDS011;22639;42.690;23.356;2023-05-21T12:34:52;8.07;;;4.50;;
36391;SDS011;22639;42.690;23.356;2023-05-21T12:37:21;6.60;;;5.05;;
36391;SDS011;22639;42.690;23.356;2023-05-21T12:39:48;4.03;;;3.58;;
36391;SDS011;22639;42.690;23.356;2023-05-21T12:42:13;7.10;;;4.30;;
36391;SDS011;22639;42.690;23.356;2023-05-21T12:44:40;6.60;;;4.05;;
36391;SDS011;22639;42.690;23.356;2023-05-21T12:47:05;5.57;;;4.05;;
36391;SDS011;22639;42.690;23.356;2023-05-21T12:49:35;4.43;;;3.67;;
36391;SDS011;22639;42.690;23.356;2023-05-21T12:52:01;4.60;;;4.20;;
36391;SDS011;22639;42.690;23.356;2023-05-21T12:54:28;5.05;;;4.50;;
36391;SDS011;22639;42.690;23.356;2023-05-21T12:56:54;8.80;;;4.57;;
36391;SDS011;22639;42.690;23.356;2023-05-21T12:59:20;7.63;;;5.07;;
36391;SDS011;22639;42.690;23.356;2023-05-21T13:01:46;7.38;;;4.97;;
36391;SDS011;22639;42.690;23.356;2023-05-21T13:04:12;7.15;;;5.15;;
36391;SDS011;22639;42.690;23.356;2023-05-21T13:06:40;8.02;;;4.95;;
36391;SDS011;22639;42.690;23.356;2023-05-21T13:09:06;9.55;;;6.55;;
36391;SDS011;22639;42.690;23.356;2023-05-21T13:11:31;8.73;;;6.38;;
36391;SDS011;22639;42.690;23.356;2023-05-21T13:13:56;10.68;;;5.85;;
36391;SDS011;22639;42.690;23.356;2023-05-21T13:16:21;8.30;;;5.65;;
36391;SDS011;22639;42.690;23.356;2023-05-21T13:18:47;6.97;;;5.28;;
36391;SDS011;22639;42.690;23.356;2023-05-21T13:21:12;10.98;;;5.57;;
36391;SDS011;22639;42.690;23.356;2023-05-21T13:23:38;10.20;;;5.53;;
36391;SDS011;22639;42.690;23.356;2023-05-21T13:26:03;7.43;;;5.30;;
36391;SDS011;22639;42.690;23.356;2023-05-21T13:28:28;6.57;;;5.40;;
36391;SDS011;22639;42.690;23.356;2023-05-21T13:30:53;7.78;;;5.75;;
36391;SDS011;22639;42.690;23.356;2023-05-21T13:33:19;6.53;;;5.32;;
36391;SDS011;22639;42.690;23.356;2023-05-21T13:35:45;11.52;;;7.28;;
36391;SDS011;22639;42.690;23.356;2023-05-21T13:38:15;8.90;;;7.10;;
36391;SDS011;22639;42.690;23.356;2023-05-21T13:40:40;7.88;;;5.88;;
36391;SDS011;22639;42.690;23.356;2023-05-21T13:43:05;6.38;;;4.75;;
36391;SDS011;22639;42.690;23.356;2023-05-21T13:45:30;6.43;;;4.70;;
36391;SDS011;22639;42.690;23.356;2023-05-21T13:47:56;8.07;;;4.57;;
36391;SDS011;22639;42.690;23.356;2023-05-21T13:50:21;8.10;;;4.50;;
36391;SDS011;22639;42.690;23.356;2023-05-21T13:52:47;5.22;;;4.43;;
36391;SDS011;22639;42.690;23.356;2023-05-21T13:55:12;9.43;;;4.88;;
36391;SDS011;22639;42.690;23.356;2023-05-21T13:57:39;7.65;;;4.75;;
36391;SDS011;22639;42.690;23.356;2023-05-21T14:00:05;8.48;;;4.78;;
36391;SDS011;22639;42.690;23.356;2023-05-21T14:02:33;5.13;;;4.47;;
36391;SDS011;22639;42.690;23.356;2023-05-21T14:04:58;6.03;;;5.20;;
36391;SDS011;22639;42.690;23.356;2023-05-21T14:07:24;7.40;;;4.75;;
36391;SDS011;22639;42.690;23.356;2023-05-21T14:09:49;7.38;;;4.85;;
36391;SDS011;22639;42.690;23.356;2023-05-21T14:12:15;7.28;;;5.00;;
36391;SDS011;22639;42.690;23.356;2023-05-21T14:14:40;5.85;;;5.07;;
36391;SDS011;22639;42.690;23.356;2023-05-21T14:17:06;9.68;;;4.78;;
36391;SDS011;22639;42.690;23.356;2023-05-21T14:19:31;7.95;;;4.75;;
36391;SDS011;22639;42.690;23.356;2023-05-21T14:21:56;8.05;;;4.60;;
36391;SDS011;22639;42.690;23.356;2023-05-21T14:24:23;7.32;;;5.40;;
36391;SDS011;22639;42.690;23.356;2023-05-21T14:26:49;7.68;;;5.22;;
36391;SDS011;22639;42.690;23.356;2023-05-21T14:29:14;6.28;;;5.00;;
36391;SDS011;22639;42.690;23.356;2023-05-21T14:31:39;6.32;;;5.03;;
36391;SDS011;22639;42.690;23.356;2023-05-21T14:34:04;9.00;;;5.57;;
36391;SDS011;22639;42.690;23.356;2023-05-21T14:36:33;11.25;;;5.07;;
36391;SDS011;22639;42.690;23.356;2023-05-21T14:38:58;6.25;;;5.68;;
36391;SDS011;22639;42.690;23.356;2023-05-21T14:41:24;7.97;;;5.82;;